createdAt,value
2016-08-20T10:41:57.101Z,29.71
2016-08-20T10:42:57.121Z,29.73
2016-08-20T10:43:57.147Z,29.79
2016-08-20T10:44:57.175Z,29.81
2016-08-20T10:45:57.227Z,29.88
2016-08-20T10:46:57.434Z,30.03
2016-08-20T10:47:57.243Z,30.05
2016-08-20T10:48:57.386Z,30.13
2016-08-20T10:49:57.414Z,30.15
2016-08-20T10:50:57.417Z,30.21
2016-08-20T10:51:57.464Z,30.25
2016-08-20T10:52:57.492Z,30.4
2016-08-20T10:53:57.616Z,30.48
2016-08-20T10:54:57.631Z,30.51
2016-08-20T10:55:57.676Z,30.5
2016-08-20T10:56:57.687Z,30.65
2016-08-20T10:57:57.688Z,30.69
2016-08-20T10:58:57.698Z,30.8
2016-08-20T10:59:57.707Z,30.84
2016-08-20T11:00:57.714Z,30.85
2016-08-20T11:01:57.723Z,30.91
2016-08-20T11:02:57.762Z,31.02
2016-08-20T11:03:57.774Z,31.1
2016-08-20T11:04:57.856Z,31.14
2016-08-20T11:05:57.811Z,31.24
2016-08-20T11:06:58.526Z,31.28
2016-08-20T11:07:58.021Z,31.39
2016-08-20T11:08:57.833Z,31.39
2016-08-20T11:09:57.984Z,31.46
2016-08-20T11:10:57.895Z,31.46
2016-08-20T11:11:57.921Z,31.51
2016-08-20T11:12:57.956Z,31.59
2016-08-20T11:13:57.985Z,31.61
2016-08-20T11:14:58.014Z,31.76
2016-08-20T11:15:58.056Z,31.84
2016-08-20T11:16:58.071Z,31.81
2016-08-20T11:17:58.107Z,31.87
2016-08-20T11:18:58.140Z,31.9
2016-08-20T11:19:58.170Z,31.96
2016-08-20T11:20:58.198Z,32.01
2016-08-20T11:21:58.936Z,32.03
2016-08-20T11:22:58.261Z,32.11
2016-08-20T11:23:58.289Z,32.16
2016-08-20T11:24:58.312Z,32.18
2016-08-20T11:25:58.359Z,32.15
2016-08-20T11:26:58.511Z,32.26
2016-08-20T11:27:59.119Z,32.18
2016-08-20T11:28:58.440Z,32.26
2016-08-20T11:29:58.471Z,32.33
2016-08-20T11:30:58.502Z,32.33
2016-08-20T11:31:58.534Z,32.43
2016-08-20T11:32:58.566Z,32.46
2016-08-20T11:33:58.594Z,32.48
2016-08-20T11:34:58.624Z,32.49
2016-08-20T11:35:58.660Z,32.63
2016-08-20T11:36:58.698Z,32.58
2016-08-20T11:37:58.727Z,32.7
2016-08-20T11:38:58.755Z,32.67
2016-08-20T11:39:58.781Z,32.71
2016-08-20T11:40:58.819Z,32.82
2016-08-20T11:41:58.848Z,32.78
2016-08-20T11:42:58.879Z,32.82
2016-08-20T11:43:58.910Z,32.97
2016-08-20T11:44:58.948Z,32.89
2016-08-20T11:45:59.688Z,33.08
2016-08-20T11:46:59.004Z,33.19
2016-08-20T11:47:59.040Z,33.22
2016-08-20T11:48:59.071Z,33.22
2016-08-20T11:49:59.151Z,33.34
2016-08-20T11:50:59.134Z,33.4
2016-08-20T11:51:59.167Z,33.42
2016-08-20T11:52:59.195Z,33.42
2016-08-20T11:53:59.227Z,33.53
2016-08-20T11:54:59.267Z,33.49
2016-08-20T11:55:59.295Z,33.58
2016-08-20T11:56:59.326Z,33.64
2016-08-20T11:57:59.363Z,33.61
2016-08-20T11:58:59.395Z,33.64
2016-08-20T11:59:59.423Z,33.68
2016-08-20T12:00:59.456Z,33.73
2016-08-20T12:01:59.491Z,33.73
2016-08-20T12:02:59.522Z,33.79
2016-08-20T12:03:59.556Z,33.68
2016-08-20T12:04:59.593Z,33.68
2016-08-20T12:05:59.623Z,33.69
2016-08-20T12:06:59.656Z,33.69
2016-08-20T12:07:59.700Z,33.67
2016-08-20T12:09:00.423Z,33.67
2016-08-20T12:09:59.757Z,33.67
2016-08-20T12:10:59.785Z,33.68
2016-08-20T12:11:59.820Z,33.74
2016-08-20T12:12:59.852Z,33.8
2016-08-20T12:13:59.884Z,33.68
2016-08-20T12:14:59.918Z,33.84
2016-08-20T12:15:59.948Z,33.81
2016-08-20T12:16:59.984Z,33.86
2016-08-20T12:18:00.021Z,33.92
2016-08-20T12:19:00.047Z,33.94
2016-08-20T12:20:00.084Z,33.9
2016-08-20T12:21:00.117Z,33.9
2016-08-20T12:22:00.150Z,33.98
2016-08-20T12:23:00.189Z,33.92
2016-08-20T12:24:00.221Z,34.03
2016-08-20T12:25:00.254Z,34.08
2016-08-20T12:26:00.284Z,34.11
2016-08-20T12:27:00.320Z,34.08
2016-08-20T12:28:01.064Z,34.05
2016-08-20T12:29:00.383Z,34.08
2016-08-20T12:30:00.420Z,34.2
2016-08-20T12:31:00.454Z,34.18
2016-08-20T12:32:00.488Z,34.17
2016-08-20T12:33:00.517Z,34.16
2016-08-20T12:34:00.549Z,34.17
2016-08-20T12:35:00.593Z,34.18
2016-08-20T12:36:00.624Z,34.18
2016-08-20T12:37:00.650Z,34.24
2016-08-20T12:38:00.692Z,34.24
2016-08-20T12:39:01.428Z,34.24
2016-08-20T12:40:00.752Z,34.3
2016-08-20T12:41:00.786Z,34.38
2016-08-20T12:42:01.527Z,34.39
2016-08-20T12:43:00.859Z,34.43
2016-08-20T12:44:00.886Z,34.43
2016-08-20T12:45:00.920Z,34.35
2016-08-20T12:46:00.962Z,34.35
2016-08-20T12:47:00.992Z,34.38
2016-08-20T12:48:01.045Z,34.32
2016-08-20T12:49:01.765Z,34.39
2016-08-20T12:50:01.103Z,34.36
2016-08-20T12:51:01.122Z,34.32
2016-08-20T12:52:01.151Z,34.29
2016-08-20T12:53:01.219Z,34.33
2016-08-20T12:54:01.278Z,34.32
2016-08-20T12:55:01.258Z,34.23
2016-08-20T12:56:01.303Z,34.33
2016-08-20T12:57:01.329Z,34.32
2016-08-20T12:58:01.361Z,34.39
2016-08-20T12:59:01.405Z,34.39
2016-08-20T13:00:02.151Z,34.42
2016-08-20T13:01:01.469Z,34.39
2016-08-20T13:02:01.499Z,34.39
2016-08-20T13:03:01.533Z,34.43
2016-08-20T13:04:01.622Z,34.42
2016-08-20T13:05:02.302Z,34.47
2016-08-20T13:06:01.630Z,34.48
2016-08-20T13:07:01.663Z,34.51
2016-08-20T13:08:01.704Z,34.48
2016-08-20T13:09:01.738Z,34.52
2016-08-20T13:10:01.771Z,34.51
2016-08-20T13:11:02.504Z,34.52
2016-08-20T13:12:01.834Z,34.54
2016-08-20T13:13:01.871Z,34.54
2016-08-20T13:14:01.909Z,34.48
2016-08-20T13:15:02.645Z,34.45
2016-08-20T13:16:01.977Z,34.43
2016-08-20T13:17:02.009Z,34.38
2016-08-20T13:18:02.044Z,34.36
2016-08-20T13:19:02.782Z,34.36
2016-08-20T13:20:02.121Z,34.36
2016-08-20T13:21:02.142Z,34.3
2016-08-20T13:22:02.888Z,34.25
2016-08-20T13:23:02.218Z,34.25
2016-08-20T13:24:02.961Z,34.21
2016-08-20T13:25:02.282Z,34.18
2016-08-20T13:26:02.413Z,34.16
2016-08-20T13:27:02.465Z,34.18
2016-08-20T13:28:02.382Z,34.1
2016-08-20T13:29:03.133Z,34.06
2016-08-20T13:30:02.463Z,34.05
2016-08-20T13:31:02.492Z,34.06
2016-08-20T13:32:03.227Z,34.1
2016-08-20T13:33:02.554Z,34.06
2016-08-20T13:34:02.593Z,34.1
2016-08-20T13:35:02.644Z,34.08
2016-08-20T13:36:02.673Z,34.11
2016-08-20T13:37:02.692Z,34.11
2016-08-20T13:38:02.737Z,34.13
2016-08-20T13:39:02.762Z,34.02
2016-08-20T13:40:02.808Z,34.1
2016-08-20T13:41:02.880Z,34.08
2016-08-20T13:42:02.861Z,34.03
2016-08-20T13:43:02.895Z,34.06
2016-08-20T13:44:02.959Z,33.94
2016-08-20T13:45:02.971Z,33.98
2016-08-20T13:46:03.032Z,33.9
2016-08-20T13:47:03.043Z,33.94
2016-08-20T13:48:03.772Z,33.95
2016-08-20T13:49:03.104Z,33.98
2016-08-20T13:50:03.146Z,33.94
2016-08-20T13:51:03.174Z,34.01
2016-08-20T13:52:03.220Z,33.95
2016-08-20T13:53:03.259Z,33.92
2016-08-20T13:54:03.366Z,33.9
2016-08-20T13:55:03.417Z,33.92
2016-08-20T13:56:03.413Z,33.95
2016-08-20T13:57:03.425Z,33.81
2016-08-20T13:58:04.135Z,33.87
2016-08-20T13:59:03.470Z,33.8
2016-08-20T14:00:03.486Z,33.81
2016-08-20T14:01:03.515Z,33.79
2016-08-20T14:02:03.659Z,33.71
2016-08-20T14:03:03.696Z,33.74
2016-08-20T14:04:03.731Z,33.71
2016-08-20T14:05:03.683Z,33.68
2016-08-20T14:06:03.683Z,33.69
2016-08-20T14:07:03.719Z,33.68
2016-08-20T14:08:03.757Z,33.53
2016-08-20T14:09:03.790Z,33.58
2016-08-20T14:10:03.823Z,33.58
2016-08-20T14:11:03.863Z,33.47
2016-08-20T14:12:03.890Z,33.59
2016-08-20T14:13:04.633Z,33.5
2016-08-20T14:14:03.960Z,33.39
2016-08-20T14:15:04.000Z,33.39
2016-08-20T14:16:04.024Z,33.4
2016-08-20T14:17:04.061Z,33.34
2016-08-20T14:18:04.096Z,33.31
2016-08-20T14:19:04.135Z,33.31
2016-08-20T14:20:04.163Z,33.34
2016-08-20T14:21:04.199Z,33.28
2016-08-20T14:22:04.347Z,33.27
2016-08-20T14:23:04.269Z,33.22
2016-08-20T14:24:04.522Z,33.27
2016-08-20T14:25:04.454Z,33.27
2016-08-20T14:26:04.584Z,33.14
2016-08-20T14:27:04.544Z,33.12
2016-08-20T14:28:04.597Z,33.12
2016-08-20T14:29:04.691Z,33.05
2016-08-20T14:30:04.613Z,33.08
2016-08-20T14:31:05.317Z,33
2016-08-20T14:32:04.811Z,32.97
2016-08-20T14:33:04.697Z,32.95
2016-08-20T14:34:04.722Z,32.85
2016-08-20T14:35:04.802Z,32.9
2016-08-20T14:36:04.709Z,32.85
2016-08-20T14:37:04.862Z,32.73
2016-08-20T14:38:04.790Z,32.74
2016-08-20T14:39:04.926Z,32.71
2016-08-20T14:40:04.864Z,32.68
2016-08-20T14:41:04.927Z,32.65
2016-08-20T14:42:05.631Z,32.65
2016-08-20T14:43:04.952Z,32.58
2016-08-20T14:44:04.988Z,32.55
2016-08-20T14:45:05.015Z,32.43
2016-08-20T14:46:05.120Z,32.43
2016-08-20T14:47:05.086Z,32.38
2016-08-20T14:48:05.118Z,32.33
2016-08-20T14:49:05.157Z,32.29
2016-08-20T14:50:05.897Z,32.27
2016-08-20T14:51:05.369Z,32.29
2016-08-20T14:52:05.254Z,32.18
2016-08-20T14:53:05.379Z,32.15
2016-08-20T14:54:05.329Z,32.11
2016-08-20T14:55:05.356Z,32.11
2016-08-20T14:56:05.443Z,32.07
2016-08-20T14:57:05.420Z,31.97
2016-08-20T14:58:05.531Z,31.94
2016-08-20T14:59:05.555Z,31.96
2016-08-20T15:00:05.539Z,31.85
2016-08-20T15:01:05.551Z,31.89
2016-08-20T15:02:05.666Z,31.78
2016-08-20T15:03:05.616Z,31.77
2016-08-20T15:04:05.654Z,31.73
2016-08-20T15:05:05.683Z,31.74
2016-08-20T15:06:05.721Z,31.76
2016-08-20T15:07:05.755Z,31.65
2016-08-20T15:08:05.792Z,31.65
2016-08-20T15:09:05.819Z,31.58
2016-08-20T15:10:05.857Z,31.55
2016-08-20T15:11:05.887Z,31.44
2016-08-20T15:12:05.921Z,31.39
2016-08-20T15:13:05.961Z,31.43
2016-08-20T15:14:05.988Z,31.46
2016-08-20T15:15:06.021Z,31.39
2016-08-20T15:16:06.056Z,31.34
2016-08-20T15:17:06.090Z,31.27
2016-08-20T15:18:06.128Z,31.22
2016-08-20T15:19:06.153Z,31.09
2016-08-20T15:20:06.192Z,31.12
2016-08-20T15:21:06.219Z,31.03
2016-08-20T15:22:06.251Z,31.02
2016-08-20T15:23:06.287Z,30.99
2016-08-20T15:24:06.321Z,30.87
2016-08-20T15:25:06.368Z,30.81
2016-08-20T15:26:06.385Z,30.77
2016-08-20T15:27:06.427Z,30.7
2016-08-20T15:28:06.640Z,30.69
2016-08-20T15:29:07.188Z,30.63
2016-08-20T15:30:06.528Z,30.57
2016-08-20T15:31:06.550Z,30.51
2016-08-20T15:32:06.581Z,30.47
2016-08-20T15:33:06.616Z,30.48
2016-08-20T15:34:06.651Z,30.44
2016-08-20T15:35:06.688Z,30.28
2016-08-20T15:36:06.714Z,30.28
2016-08-20T15:37:06.746Z,30.28
2016-08-20T15:38:06.803Z,30.21
2016-08-20T15:39:06.809Z,30.21
2016-08-20T15:40:06.842Z,30.15
2016-08-20T15:41:06.881Z,30.1
2016-08-20T15:42:06.916Z,30.06
2016-08-20T15:43:07.645Z,30.02
2016-08-20T15:44:06.973Z,29.95
2016-08-20T15:45:07.007Z,29.75
2016-08-20T15:46:07.043Z,29.87
2016-08-20T15:47:07.069Z,29.73
2016-08-20T15:48:07.103Z,29.66
2016-08-20T15:49:07.134Z,29.65
2016-08-20T15:50:07.174Z,29.61
2016-08-20T15:51:07.203Z,29.57
2016-08-20T15:52:08.253Z,29.56
2016-08-20T15:53:07.269Z,29.51
2016-08-20T15:54:07.299Z,29.45
2016-08-20T15:55:07.333Z,29.44
2016-08-20T15:56:07.363Z,29.34
2016-08-20T15:57:07.405Z,29.29
2016-08-20T15:58:07.420Z,29.26
2016-08-20T15:59:07.461Z,29.31
2016-08-20T16:00:07.488Z,29.19
2016-08-20T16:01:08.477Z,29.16
2016-08-20T16:02:07.556Z,29.1
2016-08-20T16:03:08.427Z,29.05
2016-08-20T16:04:07.624Z,29.04
2016-08-20T16:05:07.653Z,29.05
2016-08-20T16:06:07.685Z,28.93
2016-08-20T16:07:07.719Z,29.04
2016-08-20T16:08:07.752Z,28.96
2016-08-20T16:09:07.780Z,28.85
2016-08-20T16:10:07.811Z,28.81
2016-08-20T16:11:07.845Z,28.78
2016-08-20T16:12:07.872Z,28.75
2016-08-20T16:13:08.028Z,28.67
2016-08-20T16:14:08.033Z,28.69
2016-08-20T16:15:08.062Z,28.62
2016-08-20T16:16:08.089Z,28.56
2016-08-20T16:17:08.272Z,28.47
2016-08-20T16:18:08.189Z,28.54
2016-08-20T16:19:08.198Z,28.52
2016-08-20T16:20:08.331Z,28.45
2016-08-20T16:21:08.344Z,28.39
2016-08-20T16:22:08.353Z,28.35
2016-08-20T16:23:08.372Z,28.33
2016-08-20T16:24:08.372Z,28.27
2016-08-20T16:25:08.370Z,28.23
2016-08-20T16:26:08.418Z,28.25
2016-08-20T16:27:08.427Z,28.17
2016-08-20T16:28:08.458Z,28.22
2016-08-20T16:29:08.470Z,28.1
2016-08-20T16:30:08.467Z,28.02
2016-08-20T16:31:08.475Z,28.05
2016-08-20T16:32:08.507Z,28.04
2016-08-20T16:33:08.551Z,27.93
2016-08-20T16:34:08.570Z,27.98
2016-08-20T16:35:08.598Z,27.83
2016-08-20T16:36:08.635Z,27.87
2016-08-20T16:37:08.713Z,27.87
2016-08-20T16:38:08.695Z,27.78
2016-08-20T16:39:08.723Z,27.83
2016-08-20T16:40:08.762Z,27.7
2016-08-20T16:41:08.793Z,27.64
2016-08-20T16:42:08.819Z,27.68
2016-08-20T16:43:08.844Z,27.6
2016-08-20T16:44:08.887Z,27.63
2016-08-20T16:45:08.913Z,27.49
2016-08-20T16:46:08.944Z,27.49
2016-08-20T16:47:08.972Z,27.49
2016-08-20T16:48:09.001Z,27.49
2016-08-20T16:49:09.033Z,27.36
2016-08-20T16:50:09.062Z,27.3
2016-08-20T16:51:09.091Z,27.36
2016-08-20T16:52:09.124Z,27.26
2016-08-20T16:53:09.151Z,27.25
2016-08-20T16:54:09.183Z,27.27
2016-08-20T16:55:09.222Z,27.17
2016-08-20T16:56:09.253Z,27.18
2016-08-20T16:57:09.278Z,27.17
2016-08-20T16:58:09.305Z,27.03
2016-08-20T16:59:09.336Z,27.08
2016-08-20T17:00:09.370Z,27.08
2016-08-20T17:01:09.403Z,27
2016-08-20T17:02:10.142Z,27.02
2016-08-20T17:03:09.461Z,26.97
2016-08-20T17:04:09.492Z,26.99
2016-08-20T17:05:09.520Z,27
2016-08-20T17:06:09.568Z,26.9
2016-08-20T17:07:09.584Z,26.92
2016-08-20T17:08:09.615Z,26.9
2016-08-20T17:09:09.646Z,26.83
2016-08-20T17:10:09.681Z,26.77
2016-08-20T17:11:09.703Z,26.8
2016-08-20T17:12:09.735Z,26.78
2016-08-20T17:13:09.765Z,26.75
2016-08-20T17:14:09.800Z,26.78
2016-08-20T17:15:09.827Z,26.75
2016-08-20T17:16:09.877Z,26.68
2016-08-20T17:17:10.596Z,26.63
2016-08-20T17:18:09.921Z,26.68
2016-08-20T17:19:10.656Z,26.65
2016-08-20T17:20:10.098Z,26.6
2016-08-20T17:21:10.817Z,26.62
2016-08-20T17:22:10.255Z,26.56
2016-08-20T17:23:10.275Z,26.51
2016-08-20T17:24:10.270Z,26.53
2016-08-20T17:25:10.280Z,26.48
2016-08-20T17:26:10.285Z,26.51
2016-08-20T17:27:10.298Z,26.45
2016-08-20T17:28:10.315Z,26.37
2016-08-20T17:29:10.441Z,26.36
2016-08-20T17:30:10.451Z,26.34
2016-08-20T17:31:10.465Z,26.31
2016-08-20T17:32:10.473Z,26.29
2016-08-20T17:33:10.476Z,26.29
2016-08-20T17:34:10.478Z,26.28
2016-08-20T17:35:10.446Z,26.22
2016-08-20T17:36:10.456Z,26.23
2016-08-20T17:37:10.482Z,26.19
2016-08-20T17:38:10.515Z,26.15
2016-08-20T17:39:10.546Z,26.21
2016-08-20T17:40:10.579Z,26.1
2016-08-20T17:41:10.606Z,26.05
2016-08-20T17:42:10.635Z,26.06
2016-08-20T17:43:10.665Z,26.1
2016-08-20T17:44:10.692Z,26.03
2016-08-20T17:45:10.728Z,26.18
2016-08-20T17:46:11.459Z,26.1
2016-08-20T17:47:10.785Z,26
2016-08-20T17:48:10.815Z,26.03
2016-08-20T17:49:10.842Z,26.02
2016-08-20T17:50:10.884Z,25.96
2016-08-20T17:51:10.909Z,25.99
2016-08-20T17:52:10.932Z,25.98
2016-08-20T17:53:10.963Z,25.95
2016-08-20T17:54:10.997Z,25.95
2016-08-20T17:55:11.018Z,25.87
2016-08-20T17:56:11.054Z,25.81
2016-08-20T17:57:11.078Z,25.8
2016-08-20T17:58:11.111Z,25.84
2016-08-20T17:59:11.136Z,25.8
2016-08-20T18:00:11.169Z,25.81
2016-08-20T18:01:11.191Z,25.8
2016-08-20T18:02:11.230Z,25.75
2016-08-20T18:03:11.259Z,25.72
2016-08-20T18:04:11.287Z,25.7
2016-08-20T18:05:11.326Z,25.69
2016-08-20T18:06:11.341Z,25.73
2016-08-20T18:07:11.372Z,25.73
2016-08-20T18:08:11.398Z,25.69
2016-08-20T18:09:11.433Z,25.66
2016-08-20T18:10:11.462Z,25.65
2016-08-20T18:11:11.486Z,25.62
2016-08-20T18:12:11.518Z,25.65
2016-08-20T18:13:11.566Z,25.54
2016-08-20T18:14:11.574Z,25.6
2016-08-20T18:15:11.601Z,25.59
2016-08-20T18:16:11.687Z,25.51
2016-08-20T18:17:11.669Z,25.55
2016-08-20T18:18:11.694Z,25.62
2016-08-20T18:19:11.725Z,25.51
2016-08-20T18:20:11.774Z,25.43
2016-08-20T18:21:11.780Z,25.5
2016-08-20T18:22:11.867Z,25.47
2016-08-20T18:23:11.841Z,25.43
2016-08-20T18:24:11.878Z,25.46
2016-08-20T18:25:11.892Z,25.41
2016-08-20T18:26:11.926Z,25.43
2016-08-20T18:27:11.975Z,25.33
2016-08-20T18:28:11.988Z,25.33
2016-08-20T18:29:12.020Z,25.44
2016-08-20T18:30:12.046Z,25.33
2016-08-20T18:31:12.073Z,25.29
2016-08-20T18:32:12.100Z,25.32
2016-08-20T18:33:12.126Z,25.31
2016-08-20T18:34:12.158Z,25.29
2016-08-20T18:35:12.892Z,25.25
2016-08-20T18:36:12.218Z,25.25
2016-08-20T18:37:12.243Z,25.31
2016-08-20T18:38:12.272Z,25.31
2016-08-20T18:39:12.305Z,25.22
2016-08-20T18:40:12.332Z,25.17
2016-08-20T18:41:12.414Z,25.17
2016-08-20T18:42:12.391Z,25.18
2016-08-20T18:43:12.412Z,25.21
2016-08-20T18:44:13.156Z,25.16
2016-08-20T18:45:12.474Z,25.17
2016-08-20T18:46:12.504Z,25.16
2016-08-20T18:47:13.238Z,25.16
2016-08-20T18:48:12.562Z,25.16
2016-08-20T18:49:12.586Z,25.17
2016-08-20T18:50:12.617Z,25.1
2016-08-20T18:51:12.645Z,25.14
2016-08-20T18:52:12.674Z,25.1
2016-08-20T18:53:12.704Z,25.08
2016-08-20T18:54:13.443Z,25.04
2016-08-20T18:55:12.776Z,25.11
2016-08-20T18:56:12.790Z,25.07
2016-08-20T18:57:13.524Z,25.06
2016-08-20T18:58:12.846Z,25.01
2016-08-20T18:59:12.876Z,25.04
2016-08-20T19:00:12.912Z,25.06
2016-08-20T19:01:13.638Z,24.99
2016-08-20T19:02:12.963Z,24.99
2016-08-20T19:03:12.989Z,25.03
2016-08-20T19:04:13.016Z,24.93
2016-08-20T19:05:13.040Z,24.99
2016-08-20T19:06:13.081Z,24.96
2016-08-20T19:07:13.103Z,24.95
2016-08-20T19:08:13.136Z,24.92
2016-08-20T19:09:13.161Z,24.99
2016-08-20T19:10:13.191Z,24.81
2016-08-20T19:11:13.216Z,24.86
2016-08-20T19:12:13.244Z,24.99
2016-08-20T19:13:13.276Z,24.84
2016-08-20T19:14:13.307Z,24.89
2016-08-20T19:15:13.337Z,24.85
2016-08-20T19:16:13.359Z,24.85
2016-08-20T19:17:13.404Z,24.85
2016-08-20T19:18:13.424Z,24.86
2016-08-20T19:19:13.449Z,24.89
2016-08-20T19:20:13.472Z,24.8
2016-08-20T19:21:13.505Z,24.84
2016-08-20T19:22:13.535Z,24.78
2016-08-20T19:23:13.559Z,24.78
2016-08-20T19:24:13.591Z,24.78
2016-08-20T19:25:13.613Z,24.76
2016-08-20T19:26:13.645Z,24.77
2016-08-20T19:27:13.673Z,24.81
2016-08-20T19:28:13.701Z,24.78
2016-08-20T19:29:13.728Z,24.76
2016-08-20T19:30:13.756Z,24.77
2016-08-20T19:31:13.789Z,24.7
2016-08-20T19:32:13.821Z,24.7
2016-08-20T19:33:13.841Z,24.74
2016-08-20T19:34:13.873Z,24.7
2016-08-20T19:35:13.894Z,24.68
2016-08-20T19:36:13.925Z,24.63
2016-08-20T19:37:14.661Z,24.69
2016-08-20T19:38:13.991Z,24.63
2016-08-20T19:39:14.019Z,24.57
2016-08-20T19:40:14.037Z,24.6
2016-08-20T19:41:14.116Z,24.58
2016-08-20T19:42:14.103Z,24.66
2016-08-20T19:43:14.125Z,24.54
2016-08-20T19:44:14.156Z,24.57
2016-08-20T19:45:14.186Z,24.55
2016-08-20T19:46:14.209Z,24.54
2016-08-20T19:47:14.236Z,24.51
2016-08-20T19:48:14.267Z,24.5
2016-08-20T19:49:14.292Z,24.55
2016-08-20T19:50:15.034Z,24.51
2016-08-20T19:51:14.349Z,24.54
2016-08-20T19:52:14.377Z,24.43
2016-08-20T19:53:14.407Z,24.53
2016-08-20T19:54:15.144Z,24.45
2016-08-20T19:55:14.460Z,24.45
2016-08-20T19:56:14.495Z,24.42
2016-08-20T19:57:14.521Z,24.47
2016-08-20T19:58:14.544Z,24.47
2016-08-20T19:59:14.584Z,24.51
2016-08-20T20:00:14.601Z,24.47
2016-08-20T20:01:14.630Z,24.4
2016-08-20T20:02:14.680Z,24.45
2016-08-20T20:03:14.682Z,24.42
2016-08-20T20:04:14.717Z,24.36
2016-08-20T20:05:14.750Z,24.29
2016-08-20T20:06:15.479Z,24.38
2016-08-20T20:07:14.799Z,24.3
2016-08-20T20:08:14.833Z,24.28
2016-08-20T20:09:14.856Z,24.28
2016-08-20T20:10:14.885Z,24.28
2016-08-20T20:11:14.909Z,24.28
2016-08-20T20:12:14.938Z,24.29
2016-08-20T20:13:14.967Z,24.28
2016-08-20T20:14:14.998Z,24.18
2016-08-20T20:15:15.019Z,24.28
2016-08-20T20:16:15.052Z,24.21
2016-08-20T20:17:15.099Z,24.21
2016-08-20T20:18:15.101Z,24.17
2016-08-20T20:19:15.141Z,24.18
2016-08-20T20:20:15.163Z,24.16
2016-08-20T20:21:15.195Z,24.14
2016-08-20T20:22:15.215Z,24.11
2016-08-20T20:23:15.252Z,24.11
2016-08-20T20:24:16.032Z,24.11
2016-08-20T20:25:15.298Z,24.11
2016-08-20T20:26:15.328Z,24.08
2016-08-20T20:27:15.355Z,24.11
2016-08-20T20:28:16.095Z,24.02
2016-08-20T20:29:15.410Z,24.01
2016-08-20T20:30:15.453Z,23.99
2016-08-20T20:31:15.472Z,23.95
2016-08-20T20:32:15.496Z,23.99
2016-08-20T20:33:15.526Z,23.92
2016-08-20T20:34:15.667Z,23.91
2016-08-20T20:35:15.677Z,23.92
2016-08-20T20:36:15.707Z,23.86
2016-08-20T20:37:15.717Z,23.84
2016-08-20T20:38:15.727Z,23.87
2016-08-20T20:39:15.726Z,23.87
2016-08-20T20:40:15.741Z,23.83
2016-08-20T20:41:15.744Z,23.86
2016-08-20T20:42:15.813Z,23.87
2016-08-20T20:43:15.809Z,23.77
2016-08-20T20:44:15.831Z,23.84
2016-08-20T20:45:15.944Z,23.77
2016-08-20T20:46:15.976Z,23.83
2016-08-20T20:47:15.985Z,23.8
2016-08-20T20:48:15.992Z,23.78
2016-08-20T20:49:15.994Z,23.8
2016-08-20T20:50:16.003Z,23.74
2016-08-20T20:51:16.023Z,23.77
2016-08-20T20:52:16.057Z,23.71
2016-08-20T20:53:16.134Z,23.74
2016-08-20T20:54:16.116Z,23.74
2016-08-20T20:55:16.134Z,23.71
2016-08-20T20:56:16.161Z,23.73
2016-08-20T20:57:16.198Z,23.73
2016-08-20T20:58:16.223Z,23.73
2016-08-20T20:59:16.243Z,23.73
2016-08-20T21:00:16.271Z,23.73
2016-08-20T21:01:16.298Z,23.69
2016-08-20T21:02:16.327Z,23.68
2016-08-20T21:03:16.355Z,23.63
2016-08-20T21:04:16.384Z,23.66
2016-08-20T21:05:16.412Z,23.68
2016-08-20T21:06:16.435Z,23.66
2016-08-20T21:07:16.467Z,23.62
2016-08-20T21:08:16.538Z,23.66
2016-08-20T21:09:16.514Z,23.59
2016-08-20T21:10:16.548Z,23.62
2016-08-20T21:11:16.571Z,23.58
2016-08-20T21:12:16.601Z,23.55
2016-08-20T21:13:16.638Z,23.55
2016-08-20T21:14:16.660Z,23.54
2016-08-20T21:15:16.685Z,23.48
2016-08-20T21:16:16.719Z,23.48
2016-08-20T21:17:16.742Z,23.5
2016-08-20T21:18:16.761Z,23.5
2016-08-20T21:19:16.793Z,23.36
2016-08-20T21:20:16.820Z,23.37
2016-08-20T21:21:17.552Z,23.39
2016-08-20T21:22:16.875Z,23.34
2016-08-20T21:23:16.903Z,23.25
2016-08-20T21:24:16.928Z,23.36
2016-08-20T21:25:17.773Z,23.43
2016-08-20T21:26:16.980Z,23.24
2016-08-20T21:27:17.010Z,23.2
2016-08-20T21:28:17.035Z,23.28
2016-08-20T21:29:17.065Z,23.31
2016-08-20T21:30:17.091Z,23.28
2016-08-20T21:31:17.121Z,23.24
2016-08-20T21:32:17.149Z,23.21
2016-08-20T21:33:18.012Z,23.21
2016-08-20T21:34:17.205Z,23.18
2016-08-20T21:35:17.247Z,23.1
2016-08-20T21:36:17.254Z,23.12
2016-08-20T21:37:17.286Z,23.08
2016-08-20T21:38:17.311Z,23.12
2016-08-20T21:39:17.338Z,23.17
2016-08-20T21:40:17.361Z,23.09
2016-08-20T21:41:17.390Z,22.99
2016-08-20T21:42:18.143Z,22.94
2016-08-20T21:43:17.446Z,22.94
2016-08-20T21:44:17.478Z,22.99
2016-08-20T21:45:17.513Z,22.99
2016-08-20T21:46:17.526Z,22.98
2016-08-20T21:47:18.269Z,23.02
2016-08-20T21:48:17.671Z,22.94
2016-08-20T21:49:17.700Z,22.93
2016-08-20T21:50:17.727Z,22.87
2016-08-20T21:51:17.882Z,22.88
2016-08-20T21:52:17.898Z,22.85
2016-08-20T21:53:17.909Z,22.91
2016-08-20T21:54:17.963Z,22.8
2016-08-20T21:55:17.953Z,22.9
2016-08-20T21:56:17.965Z,22.91
2016-08-20T21:57:17.971Z,22.84
2016-08-20T21:58:18.691Z,22.85
2016-08-20T21:59:17.993Z,22.85
2016-08-20T22:00:17.993Z,22.78
2016-08-20T22:01:18.032Z,22.83
2016-08-20T22:02:18.064Z,22.76
2016-08-20T22:03:18.073Z,22.76
2016-08-20T22:04:18.083Z,22.72
2016-08-20T22:05:18.080Z,22.69
2016-08-20T22:06:18.092Z,22.69
2016-08-20T22:07:18.096Z,22.72
2016-08-20T22:08:18.121Z,22.69
2016-08-20T22:09:18.166Z,22.65
2016-08-20T22:10:18.369Z,22.66
2016-08-20T22:11:18.202Z,22.69
2016-08-20T22:12:18.225Z,22.6
2016-08-20T22:13:18.259Z,22.6
2016-08-20T22:14:18.286Z,22.57
2016-08-20T22:15:18.310Z,22.57
2016-08-20T22:16:18.332Z,22.59
2016-08-20T22:17:18.365Z,22.6
2016-08-20T22:18:18.392Z,22.59
2016-08-20T22:19:18.415Z,22.63
2016-08-20T22:20:18.445Z,22.59
2016-08-20T22:21:18.467Z,22.5
2016-08-20T22:22:18.493Z,22.55
2016-08-20T22:23:18.529Z,22.51
2016-08-20T22:24:18.553Z,22.5
2016-08-20T22:25:18.580Z,22.45
2016-08-20T22:26:18.602Z,22.51
2016-08-20T22:27:19.338Z,22.59
2016-08-20T22:28:18.658Z,22.55
2016-08-20T22:29:19.385Z,22.44
2016-08-20T22:30:18.707Z,22.51
2016-08-20T22:31:18.755Z,22.45
2016-08-20T22:32:18.770Z,22.5
2016-08-20T22:33:18.789Z,22.51
2016-08-20T22:34:18.820Z,22.53
2016-08-20T22:35:18.839Z,22.55
2016-08-20T22:36:18.870Z,22.48
2016-08-20T22:37:18.893Z,22.48
2016-08-20T22:38:18.925Z,22.43
2016-08-20T22:39:18.953Z,22.47
2016-08-20T22:40:18.978Z,22.36
2016-08-20T22:41:19.007Z,22.47
2016-08-20T22:42:19.829Z,22.43
2016-08-20T22:43:19.837Z,22.43
2016-08-20T22:44:19.084Z,22.41
2016-08-20T22:45:19.155Z,22.41
2016-08-20T22:46:19.132Z,22.38
2016-08-20T22:47:19.164Z,22.32
2016-08-20T22:48:19.190Z,22.33
2016-08-20T22:49:19.216Z,22.32
2016-08-20T22:50:19.251Z,22.3
2016-08-20T22:51:19.268Z,22.29
2016-08-20T22:52:19.297Z,22.29
2016-08-20T22:53:19.317Z,22.26
2016-08-20T22:54:19.346Z,22.29
2016-08-20T22:55:19.379Z,22.25
2016-08-20T22:56:19.394Z,22.28
2016-08-20T22:57:19.474Z,22.25
2016-08-20T22:58:20.160Z,22.22
2016-08-20T22:59:19.477Z,22.22
2016-08-20T23:00:19.518Z,22.22
2016-08-20T23:01:20.238Z,22.25
2016-08-20T23:02:19.556Z,22.13
2016-08-20T23:03:20.293Z,22.14
2016-08-20T23:04:19.727Z,22.11
2016-08-20T23:05:19.727Z,22.17
2016-08-20T23:06:19.756Z,22.14
2016-08-20T23:07:19.936Z,22.14
2016-08-20T23:08:20.656Z,22.2
2016-08-20T23:09:19.958Z,22.02
2016-08-20T23:10:19.962Z,22.06
2016-08-20T23:11:20.712Z,22.08
2016-08-20T23:12:20.012Z,22.08
2016-08-20T23:13:20.025Z,21.99
2016-08-20T23:14:20.027Z,22.02
2016-08-20T23:15:20.035Z,22.02
2016-08-20T23:16:20.050Z,22.04
2016-08-20T23:17:20.053Z,22.04
2016-08-20T23:18:20.069Z,22.04
2016-08-20T23:19:20.100Z,21.98
2016-08-20T23:20:20.109Z,22.06
2016-08-20T23:21:20.144Z,21.99
2016-08-20T23:22:20.145Z,21.95
2016-08-20T23:23:20.138Z,21.98
2016-08-20T23:24:21.553Z,21.99
2016-08-20T23:25:20.162Z,21.99
2016-08-20T23:26:20.192Z,21.96
2016-08-20T23:27:20.925Z,21.92
2016-08-20T23:28:20.239Z,21.96
2016-08-20T23:29:20.272Z,21.91
2016-08-20T23:30:20.292Z,21.89
2016-08-20T23:31:20.319Z,21.88
2016-08-20T23:32:20.343Z,21.85
2016-08-20T23:33:20.375Z,21.85
2016-08-20T23:34:20.404Z,21.82
2016-08-20T23:35:20.425Z,21.91
2016-08-20T23:36:20.452Z,21.85
2016-08-20T23:37:20.475Z,21.82